createdAt,value
2022-10-13T00:01:19.912Z,12.00
2022-10-13T00:03:49.354Z,11.63
2022-10-13T00:06:18.899Z,12.20
2022-10-13T00:08:47.812Z,11.50
2022-10-13T00:11:18.154Z,11.50
2022-10-13T00:13:47.195Z,12.20
2022-10-13T00:16:16.637Z,11.93
2022-10-13T00:18:44.544Z,12.03
2022-10-13T00:21:15.874Z,12.23
2022-10-13T00:23:44.650Z,12.90
2022-10-13T00:26:14.316Z,11.93
2022-10-13T00:28:42.254Z,12.07
2022-10-13T00:31:18.153Z,12.67
2022-10-13T00:33:46.057Z,12.37
2022-10-13T00:36:15.121Z,11.90
2022-10-13T00:38:42.689Z,12.30
2022-10-13T00:41:10.826Z,12.77
2022-10-13T00:43:58.836Z,12.63
2022-10-13T00:46:27.864Z,12.27
2022-10-13T00:48:56.651Z,11.90
2022-10-13T00:51:28.020Z,12.30
2022-10-13T00:53:56.483Z,11.23
2022-10-13T00:56:25.307Z,11.80
2022-10-13T00:58:53.240Z,11.90
2022-10-13T01:01:21.269Z,11.83
2022-10-13T01:03:49.043Z,11.97
2022-10-13T01:06:21.140Z,12.87
2022-10-13T01:08:52.723Z,12.83
2022-10-13T01:11:39.077Z,12.27
2022-10-13T01:14:14.757Z,11.87
2022-10-13T01:16:51.375Z,12.47
2022-10-13T01:19:43.271Z,12.07
2022-10-13T01:22:19.273Z,12.57
2022-10-13T01:24:57.278Z,12.00
2022-10-13T01:27:48.649Z,11.90
2022-10-13T01:30:18.533Z,12.03
2022-10-13T01:33:08.017Z,12.50
2022-10-13T01:35:48.601Z,11.87
2022-10-13T01:38:25.533Z,12.13
2022-10-13T01:41:01.860Z,12.53
2022-10-13T01:43:36.446Z,11.47
2022-10-13T01:46:09.552Z,12.00
2022-10-13T01:48:39.499Z,12.93
2022-10-13T01:51:08.598Z,12.60
2022-10-13T01:53:36.601Z,12.20
2022-10-13T01:56:04.374Z,12.67
2022-10-13T01:58:35.436Z,13.00
2022-10-13T02:01:19.473Z,13.20
2022-10-13T02:03:54.384Z,12.93
2022-10-13T02:06:23.836Z,12.37
2022-10-13T02:08:58.579Z,12.70
2022-10-13T02:11:26.285Z,12.27
2022-10-13T02:14:00.605Z,12.67
2022-10-13T02:16:31.360Z,12.23
2022-10-13T02:18:59.391Z,13.53
2022-10-13T02:21:27.269Z,12.63
2022-10-13T02:23:54.760Z,13.20
2022-10-13T02:26:23.233Z,12.27
2022-10-13T02:28:50.764Z,13.10
2022-10-13T02:31:18.535Z,12.03
2022-10-13T02:33:47.580Z,11.90
2022-10-13T02:36:15.079Z,12.23
2022-10-13T02:38:42.829Z,12.67
2022-10-13T02:41:10.340Z,12.50
2022-10-13T02:43:38.659Z,12.07
2022-10-13T02:46:07.119Z,11.93
2022-10-13T02:48:34.753Z,12.07
2022-10-13T02:51:04.091Z,11.90
2022-10-13T02:53:31.776Z,12.13
2022-10-13T02:55:59.534Z,12.47
2022-10-13T02:58:27.072Z,12.27
2022-10-13T03:00:54.833Z,12.70
2022-10-13T03:03:22.508Z,12.07
2022-10-13T03:05:50.024Z,12.63
2022-10-13T03:08:18.975Z,12.73
2022-10-13T03:10:46.888Z,12.37
2022-10-13T03:13:14.767Z,12.97
2022-10-13T03:15:42.311Z,11.97
2022-10-13T03:18:09.916Z,12.43
2022-10-13T03:20:38.439Z,12.67
2022-10-13T03:23:06.840Z,12.87
2022-10-13T03:25:36.187Z,12.20
2022-10-13T03:28:04.191Z,12.40
2022-10-13T03:30:31.683Z,12.50
2022-10-13T03:32:59.469Z,12.63
2022-10-13T03:35:27.464Z,12.10
2022-10-13T03:37:55.237Z,11.67
2022-10-13T03:40:22.916Z,12.07
2022-10-13T03:42:51.914Z,11.80
2022-10-13T03:45:20.872Z,12.03
2022-10-13T03:47:48.578Z,12.47
2022-10-13T03:50:16.306Z,12.30
2022-10-13T03:52:43.839Z,12.27
2022-10-13T03:55:11.445Z,12.63
2022-10-13T03:57:39.117Z,11.70
2022-10-13T04:00:11.342Z,12.60
2022-10-13T04:02:39.086Z,12.27
2022-10-13T04:05:07.460Z,12.57
2022-10-13T04:07:35.984Z,11.93
2022-10-13T04:10:03.812Z,11.50
2022-10-13T04:12:31.449Z,12.97
2022-10-13T04:14:59.138Z,12.27
2022-10-13T04:17:28.200Z,12.03
2022-10-13T04:19:55.759Z,12.73
2022-10-13T04:22:23.459Z,12.47
2022-10-13T04:24:50.967Z,12.60
2022-10-13T04:27:19.925Z,12.73
2022-10-13T04:29:48.078Z,11.93
2022-10-13T04:32:15.665Z,11.63
2022-10-13T04:34:44.632Z,12.63
2022-10-13T04:37:12.257Z,12.47
2022-10-13T04:39:39.880Z,12.10
2022-10-13T04:42:07.618Z,12.43
2022-10-13T04:44:35.315Z,12.63
2022-10-13T04:47:02.956Z,12.30
2022-10-13T04:49:30.631Z,12.43
2022-10-13T04:51:59.592Z,12.00
2022-10-13T04:54:27.347Z,13.13
2022-10-13T04:56:54.932Z,11.93
2022-10-13T04:59:22.577Z,12.33
2022-10-13T05:01:50.277Z,12.03
2022-10-13T05:04:17.988Z,12.77
2022-10-13T05:07:12.405Z,11.30
2022-10-13T05:09:35.137Z,12.20
2022-10-13T05:12:03.061Z,11.03
2022-10-13T05:14:31.072Z,12.53
2022-10-13T05:16:58.781Z,12.93
2022-10-13T05:19:26.532Z,12.33
2022-10-13T05:21:54.125Z,12.20
2022-10-13T05:24:31.134Z,12.40
2022-10-13T05:27:00.589Z,11.57
2022-10-13T05:29:28.512Z,11.77
2022-10-13T05:31:56.217Z,12.50
2022-10-13T05:34:24.059Z,11.57
2022-10-13T05:36:51.775Z,12.37
2022-10-13T05:39:19.783Z,12.53
2022-10-13T05:41:47.340Z,11.53
2022-10-13T05:44:17.449Z,11.87
2022-10-13T05:46:45.312Z,10.93
2022-10-13T05:49:12.868Z,11.77
2022-10-13T05:51:43.944Z,11.70
2022-10-13T05:54:15.703Z,10.83
2022-10-13T05:56:45.655Z,11.93
2022-10-13T05:59:16.678Z,11.00
2022-10-13T06:01:44.956Z,12.03
2022-10-13T06:04:15.280Z,11.77
2022-10-13T06:06:42.850Z,11.40
2022-10-13T06:09:10.357Z,12.00
2022-10-13T06:11:37.988Z,11.00
2022-10-13T06:14:05.691Z,11.43
2022-10-13T06:16:37.273Z,10.70
2022-10-13T06:19:05.155Z,11.07
2022-10-13T06:21:32.961Z,11.00
2022-10-13T06:24:01.202Z,11.20
2022-10-13T06:26:28.677Z,11.00
2022-10-13T06:28:59.496Z,11.03
2022-10-13T06:31:27.885Z,11.37
2022-10-13T06:33:56.825Z,10.50
2022-10-13T06:36:24.279Z,11.00
2022-10-13T06:38:51.910Z,11.20
2022-10-13T06:41:19.449Z,10.37
2022-10-13T06:43:47.009Z,11.33
2022-10-13T06:46:14.564Z,10.90
2022-10-13T06:48:42.022Z,10.77
2022-10-13T06:51:12.557Z,10.90
2022-10-13T06:53:40.094Z,10.80
2022-10-13T06:56:09.615Z,10.80
2022-10-13T06:58:37.558Z,11.03
2022-10-13T07:01:05.510Z,11.13
2022-10-13T07:03:33.157Z,10.97
2022-10-13T07:06:04.433Z,10.23
2022-10-13T07:08:34.040Z,10.93
2022-10-13T07:11:10.538Z,10.43
2022-10-13T07:13:45.291Z,10.43
2022-10-13T07:16:14.733Z,10.17
2022-10-13T07:18:42.384Z,10.43
2022-10-13T07:21:10.519Z,10.67
2022-10-13T07:23:39.374Z,10.87
2022-10-13T07:26:08.856Z,10.60
2022-10-13T07:28:36.481Z,10.53
2022-10-13T07:31:09.606Z,10.33
2022-10-13T07:33:37.132Z,9.57
2022-10-13T07:36:05.157Z,9.73
2022-10-13T07:38:32.770Z,10.13
2022-10-13T07:41:03.113Z,9.93
2022-10-13T07:43:30.910Z,10.53
2022-10-13T07:45:59.406Z,10.47
2022-10-13T07:48:27.114Z,10.90
2022-10-13T07:50:54.733Z,10.73
2022-10-13T07:53:22.491Z,10.13
2022-10-13T07:55:50.021Z,10.27
2022-10-13T07:58:18.945Z,10.30
2022-10-13T08:00:46.602Z,9.97
2022-10-13T08:03:14.146Z,9.77
2022-10-13T08:05:41.701Z,10.43
2022-10-13T08:08:09.251Z,9.50
2022-10-13T08:10:36.970Z,9.97
2022-10-13T08:13:04.479Z,10.80
2022-10-13T08:15:34.934Z,10.47
2022-10-13T08:18:02.406Z,9.37
2022-10-13T08:20:40.918Z,9.90
2022-10-13T08:23:09.194Z,10.47
2022-10-13T08:25:40.745Z,9.80
2022-10-13T08:28:19.163Z,10.17
2022-10-13T08:30:48.496Z,9.73
2022-10-13T08:33:16.187Z,9.90
2022-10-13T08:35:43.875Z,9.93
2022-10-13T08:38:11.726Z,9.87
2022-10-13T08:40:40.364Z,10.23
2022-10-13T08:43:09.310Z,9.57
2022-10-13T08:45:41.506Z,9.60
2022-10-13T08:48:13.729Z,10.00
2022-10-13T08:50:43.968Z,10.80
2022-10-13T08:53:13.796Z,10.57
2022-10-13T08:55:44.520Z,10.70
2022-10-13T08:58:15.408Z,10.70
2022-10-13T09:00:43.578Z,10.30
2022-10-13T09:03:23.397Z,9.60
2022-10-13T09:06:00.942Z,10.20
2022-10-13T09:08:40.842Z,10.60
2022-10-13T09:11:10.631Z,10.20
2022-10-13T09:13:38.362Z,10.37
2022-10-13T09:16:06.357Z,10.27
2022-10-13T09:18:35.595Z,10.50
2022-10-13T09:21:19.786Z,10.33
2022-10-13T09:23:47.576Z,10.03
2022-10-13T09:26:20.725Z,10.47
2022-10-13T09:28:48.361Z,10.33
2022-10-13T09:31:18.156Z,10.87
2022-10-13T09:33:47.285Z,10.33
2022-10-13T09:36:15.939Z,11.13
2022-10-13T09:38:46.545Z,10.20
2022-10-13T09:41:18.333Z,10.23
2022-10-13T09:44:00.293Z,10.67
2022-10-13T09:46:29.767Z,11.27
2022-10-13T09:49:01.574Z,10.50
2022-10-13T09:51:36.579Z,11.03
2022-10-13T09:54:04.341Z,10.50
2022-10-13T09:56:37.057Z,10.80
2022-10-13T09:59:09.347Z,10.00
2022-10-13T10:01:40.862Z,10.60
2022-10-13T10:04:12.592Z,10.27
2022-10-13T10:06:41.581Z,9.90
2022-10-13T10:09:33.003Z,10.20
2022-10-13T10:12:01.583Z,10.10
2022-10-13T10:14:30.770Z,10.13
2022-10-13T10:17:04.065Z,8.83
2022-10-13T10:19:46.004Z,9.73
2022-10-13T10:22:19.415Z,9.57
2022-10-13T10:24:50.463Z,9.53
2022-10-13T10:29:56.105Z,9.60
2022-10-13T10:32:29.195Z,9.50
2022-10-13T10:35:01.511Z,9.03
2022-10-13T10:37:44.336Z,9.87
2022-10-13T10:40:21.801Z,10.10
2022-10-13T10:43:03.394Z,8.97
2022-10-13T10:45:35.565Z,9.03
2022-10-13T10:48:07.782Z,9.43
2022-10-13T10:50:36.769Z,9.53
2022-10-13T10:53:07.604Z,9.77
2022-10-13T10:55:41.030Z,9.20
2022-10-13T10:58:17.012Z,9.13
2022-10-13T11:00:51.128Z,9.77
2022-10-13T11:03:27.689Z,9.23
2022-10-13T11:06:05.204Z,9.33
2022-10-13T11:08:41.668Z,8.97
2022-10-13T11:11:37.750Z,9.60
2022-10-13T11:14:31.882Z,9.90
2022-10-13T11:17:18.664Z,9.20
2022-10-13T11:19:47.744Z,9.20
2022-10-13T11:22:22.052Z,8.90
2022-10-13T11:25:25.892Z,9.70
2022-10-13T11:27:53.473Z,9.00
2022-10-13T11:30:41.170Z,9.40
2022-10-13T11:33:48.061Z,9.37
2022-10-13T11:36:45.982Z,8.90
2022-10-13T11:39:46.738Z,9.77
2022-10-13T11:42:38.243Z,9.93
2022-10-13T11:45:17.292Z,10.30
2022-10-13T11:48:04.926Z,9.03
2022-10-13T11:50:38.420Z,8.70
2022-10-13T11:53:12.789Z,9.83
2022-10-13T11:55:46.993Z,9.20
2022-10-13T11:58:17.961Z,11.97
2022-10-13T12:00:57.056Z,7.60
2022-10-13T12:03:27.719Z,9.07
2022-10-13T12:05:58.318Z,5.67
2022-10-13T12:08:27.054Z,4.97
2022-10-13T12:10:58.112Z,5.43
2022-10-13T12:13:28.003Z,4.67
2022-10-13T12:16:00.933Z,4.67
2022-10-13T12:18:34.021Z,4.00
2022-10-13T12:21:04.347Z,4.50
2022-10-13T12:23:33.014Z,4.37
2022-10-13T12:26:02.214Z,5.30
2022-10-13T12:28:32.152Z,5.07
2022-10-13T12:31:00.847Z,5.20
2022-10-13T12:33:31.570Z,5.23
2022-10-13T12:36:13.011Z,5.00
2022-10-13T12:38:44.951Z,4.30
2022-10-13T12:41:16.530Z,4.63
2022-10-13T12:43:44.341Z,5.40
2022-10-13T12:46:11.835Z,4.73
2022-10-13T12:48:40.217Z,5.30
2022-10-13T12:51:10.266Z,5.40
2022-10-13T12:53:38.717Z,5.17
2022-10-13T12:56:06.962Z,5.10
2022-10-13T12:58:36.917Z,5.40
2022-10-13T13:01:29.251Z,5.70
2022-10-13T13:03:58.988Z,6.23
2022-10-13T13:06:31.864Z,5.30
2022-10-13T13:09:20.377Z,5.57
2022-10-13T13:11:48.028Z,6.10
2022-10-13T13:14:36.370Z,6.30
2022-10-13T13:17:06.530Z,5.33
2022-10-13T13:19:35.194Z,5.50
2022-10-13T13:22:03.764Z,6.83
2022-10-13T13:24:39.956Z,5.77
2022-10-13T13:27:18.390Z,5.87
2022-10-13T13:29:47.612Z,5.90
2022-10-13T13:32:19.951Z,5.63
2022-10-13T13:34:47.925Z,5.93
2022-10-13T13:37:24.176Z,5.50
2022-10-13T13:39:51.908Z,5.93
2022-10-13T13:42:19.507Z,5.47
2022-10-13T13:44:48.446Z,5.37
2022-10-13T13:47:18.428Z,5.90
2022-10-13T13:49:46.545Z,5.27
2022-10-13T13:52:14.161Z,5.53
2022-10-13T13:54:41.729Z,5.97
2022-10-13T13:57:10.628Z,5.93
2022-10-13T13:59:38.340Z,6.43
2022-10-13T14:02:08.838Z,7.27
2022-10-13T14:04:36.707Z,6.60
2022-10-13T14:07:04.210Z,7.40
2022-10-13T14:09:32.056Z,7.53
2022-10-13T14:12:00.003Z,7.47
2022-10-13T14:14:27.560Z,8.70
2022-10-13T14:16:55.052Z,7.60
2022-10-13T14:19:24.051Z,7.37
2022-10-13T14:21:51.568Z,8.03
2022-10-13T14:24:19.405Z,9.03
2022-10-13T14:26:47.122Z,7.63
2022-10-13T14:29:14.788Z,7.90
2022-10-13T14:31:42.361Z,8.60
2022-10-13T14:34:10.229Z,9.40
2022-10-13T14:36:39.144Z,7.97
2022-10-13T14:39:06.815Z,9.47
2022-10-13T14:41:34.371Z,8.67
2022-10-13T14:44:02.100Z,8.77
2022-10-13T14:46:29.882Z,8.17
2022-10-13T14:48:58.730Z,8.93
2022-10-13T14:51:26.332Z,9.30
2022-10-13T14:53:55.310Z,9.37
2022-10-13T14:56:25.567Z,9.00
2022-10-13T14:58:54.392Z,8.37
2022-10-13T15:01:21.948Z,9.30
2022-10-13T15:03:49.869Z,9.73
2022-10-13T15:06:19.245Z,8.90
2022-10-13T15:08:46.990Z,10.70
2022-10-13T15:11:16.440Z,9.90
2022-10-13T15:13:44.393Z,9.53
2022-10-13T15:16:16.221Z,10.20
2022-10-13T15:18:44.337Z,10.00
2022-10-13T15:21:12.096Z,10.00
2022-10-13T15:23:39.909Z,9.70
2022-10-13T15:26:08.196Z,9.80
2022-10-13T15:28:38.815Z,7.60
2022-10-13T15:31:06.967Z,10.37
2022-10-13T15:33:34.668Z,10.27
2022-10-13T15:36:02.246Z,9.77
2022-10-13T15:38:30.048Z,10.47
2022-10-13T15:41:00.553Z,11.07
2022-10-13T15:43:28.328Z,11.03
2022-10-13T15:45:58.982Z,13.00
2022-10-13T15:48:26.780Z,11.50
2022-10-13T15:50:54.457Z,12.77
2022-10-13T15:53:22.296Z,12.53
2022-10-13T15:55:49.809Z,12.97
2022-10-13T15:58:18.036Z,13.20
2022-10-13T16:00:45.934Z,13.83
2022-10-13T16:03:17.841Z,15.23
2022-10-13T16:05:46.790Z,15.60
2022-10-13T16:08:15.144Z,15.07
2022-10-13T16:10:44.035Z,12.57
2022-10-13T16:13:15.100Z,13.40
2022-10-13T16:15:42.847Z,13.27
2022-10-13T16:18:10.426Z,13.40
2022-10-13T16:20:44.243Z,14.30
2022-10-13T16:23:11.782Z,16.27
2022-10-13T16:25:40.214Z,14.07
2022-10-13T16:28:07.701Z,18.90
2022-10-13T16:30:37.218Z,13.87
2022-10-13T16:33:04.963Z,13.87
2022-10-13T16:35:34.166Z,14.07
2022-10-13T16:38:04.666Z,14.83
2022-10-13T16:40:32.381Z,14.50
2022-10-13T16:42:59.854Z,14.17
2022-10-13T16:45:47.892Z,14.23
2022-10-13T16:48:14.926Z,14.33
2022-10-13T16:50:42.421Z,13.63
2022-10-13T16:53:11.318Z,14.90
2022-10-13T16:55:40.171Z,14.20
2022-10-13T16:58:07.885Z,15.40
2022-10-13T17:00:36.154Z,14.87
2022-10-13T17:03:03.760Z,14.80
2022-10-13T17:05:31.314Z,14.93
2022-10-13T17:07:58.915Z,15.77
2022-10-13T17:10:28.018Z,15.77
2022-10-13T17:12:55.489Z,16.17
2022-10-13T17:15:22.989Z,15.60
2022-10-13T17:17:50.669Z,15.90
2022-10-13T17:20:18.601Z,16.40
2022-10-13T17:22:46.109Z,15.27
2022-10-13T17:25:14.045Z,15.40
2022-10-13T17:27:43.028Z,16.50
2022-10-13T17:30:11.892Z,16.47
2022-10-13T17:32:39.994Z,15.13
2022-10-13T17:35:10.783Z,15.73
2022-10-13T17:37:38.318Z,15.47
2022-10-13T17:40:06.850Z,15.37
2022-10-13T17:42:34.421Z,13.07
2022-10-13T17:45:03.342Z,14.43
2022-10-13T17:47:31.041Z,16.97
2022-10-13T17:49:58.558Z,14.27
2022-10-13T17:52:26.821Z,13.60
2022-10-13T17:54:55.765Z,12.57
2022-10-13T17:57:23.412Z,12.67
2022-10-13T17:59:51.191Z,12.97
2022-10-13T18:02:21.673Z,12.50
2022-10-13T18:04:49.156Z,11.67
2022-10-13T18:07:16.618Z,11.70
2022-10-13T18:09:44.681Z,11.20
2022-10-13T18:12:12.201Z,11.80
2022-10-13T18:14:39.713Z,12.00
2022-10-13T18:17:07.269Z,10.87
2022-10-13T18:19:40.072Z,11.47
2022-10-13T18:22:08.029Z,10.37
2022-10-13T18:24:35.528Z,10.53
2022-10-13T18:27:03.027Z,11.70
2022-10-13T18:29:30.753Z,11.83
2022-10-13T18:31:58.281Z,11.83
2022-10-13T18:34:25.797Z,11.43
2022-10-13T18:36:55.914Z,13.10
2022-10-13T18:39:25.648Z,12.63
2022-10-13T18:41:53.768Z,12.00
2022-10-13T18:44:21.662Z,12.97
2022-10-13T18:46:50.310Z,12.50
2022-10-13T18:49:20.499Z,12.57
2022-10-13T18:51:50.937Z,12.93
2022-10-13T18:54:19.921Z,11.87
2022-10-13T18:56:47.517Z,12.37
2022-10-13T18:59:15.123Z,13.30
2022-10-13T19:01:42.870Z,12.90
2022-10-13T19:04:12.702Z,12.30
2022-10-13T19:06:40.743Z,12.63
2022-10-13T19:09:09.947Z,11.97
2022-10-13T19:11:39.093Z,12.57
2022-10-13T19:14:08.806Z,11.17
2022-10-13T19:16:38.818Z,10.73
2022-10-13T19:19:07.873Z,10.17
2022-10-13T19:21:36.028Z,10.23
2022-10-13T19:24:03.731Z,9.70
2022-10-13T19:26:33.245Z,9.10
2022-10-13T19:29:05.275Z,9.50
2022-10-13T19:31:34.741Z,8.93
2022-10-13T19:34:02.474Z,8.47
2022-10-13T19:36:31.719Z,8.70
2022-10-13T19:39:00.031Z,8.20
2022-10-13T19:41:29.107Z,8.17
2022-10-13T19:43:56.705Z,8.27
2022-10-13T19:46:25.781Z,8.53
2022-10-13T19:48:53.254Z,8.37
2022-10-13T19:51:20.802Z,8.27
2022-10-13T19:53:49.467Z,8.13
2022-10-13T19:56:22.878Z,8.00
2022-10-13T19:58:50.547Z,8.13
2022-10-13T20:01:19.864Z,8.13
2022-10-13T20:03:49.218Z,6.93
2022-10-13T20:06:17.667Z,7.67
2022-10-13T20:08:46.246Z,7.17
2022-10-13T20:11:20.672Z,7.30
2022-10-13T20:13:51.091Z,7.70
2022-10-13T20:16:20.701Z,8.03
2022-10-13T20:18:53.989Z,7.23
2022-10-13T20:21:21.939Z,6.67
2022-10-13T20:23:50.260Z,6.80
2022-10-13T20:26:18.512Z,6.90
2022-10-13T20:28:47.211Z,5.93
2022-10-13T20:31:15.883Z,5.70
2022-10-13T20:33:43.670Z,6.00
2022-10-13T20:36:14.925Z,6.00
2022-10-13T20:38:42.522Z,5.40
2022-10-13T20:41:15.865Z,6.00
2022-10-13T20:43:43.392Z,5.90
2022-10-13T20:46:11.116Z,5.33
2022-10-13T20:49:08.784Z,6.60
2022-10-13T20:51:29.687Z,5.30
2022-10-13T20:53:57.498Z,5.43
2022-10-13T20:56:26.765Z,5.40
2022-10-13T20:58:55.053Z,5.60
2022-10-13T21:01:23.772Z,5.23
2022-10-13T21:03:55.332Z,5.40
2022-10-13T21:06:24.048Z,5.80
2022-10-13T21:08:53.737Z,5.57
2022-10-13T21:11:23.437Z,6.00
2022-10-13T21:13:52.050Z,5.97
2022-10-13T21:16:21.566Z,5.70
2022-10-13T21:18:50.834Z,5.73
2022-10-13T21:21:20.181Z,5.77
2022-10-13T21:23:50.425Z,6.30
2022-10-13T21:26:21.895Z,6.10
2022-10-13T21:28:50.364Z,5.70
2022-10-13T21:31:19.400Z,6.27
2022-10-13T21:33:47.117Z,5.60
2022-10-13T21:36:16.576Z,6.00
2022-10-13T21:38:45.204Z,6.13
2022-10-13T21:41:13.773Z,6.00
2022-10-13T21:43:42.757Z,6.60
2022-10-13T21:46:12.497Z,6.70
2022-10-13T21:48:40.216Z,6.03
2022-10-13T21:51:15.251Z,6.67
2022-10-13T21:53:43.705Z,6.90
2022-10-13T21:56:12.493Z,6.30
2022-10-13T21:58:40.385Z,6.90
2022-10-13T22:01:09.653Z,7.30
2022-10-13T22:03:37.305Z,7.40
2022-10-13T22:06:10.148Z,6.50
2022-10-13T22:08:41.552Z,6.90
2022-10-13T22:11:11.380Z,7.50
2022-10-13T22:13:39.734Z,7.17
2022-10-13T22:16:10.590Z,7.17
2022-10-13T22:18:38.135Z,7.27
2022-10-13T22:21:07.831Z,7.70
2022-10-13T22:23:35.639Z,7.70
2022-10-13T22:26:03.266Z,7.63
2022-10-13T22:28:36.822Z,7.63
2022-10-13T22:31:05.568Z,7.40
2022-10-13T22:33:35.800Z,8.07
2022-10-13T22:36:08.151Z,7.97
2022-10-13T22:38:35.830Z,7.87
2022-10-13T22:41:03.926Z,8.67
2022-10-13T22:43:31.808Z,8.83
2022-10-13T22:45:59.531Z,8.63
2022-10-13T22:48:27.098Z,8.13
2022-10-13T22:50:56.518Z,7.90
2022-10-13T22:53:24.032Z,8.27
2022-10-13T22:55:51.610Z,8.60
2022-10-13T22:58:19.146Z,8.57
2022-10-13T23:00:46.948Z,8.83
2022-10-13T23:03:15.913Z,8.60
2022-10-13T23:05:44.107Z,8.97
2022-10-13T23:08:13.336Z,9.50
2022-10-13T23:10:40.893Z,8.87
2022-10-13T23:13:08.553Z,9.03
2022-10-13T23:15:38.823Z,8.77
2022-10-13T23:18:06.418Z,8.77
2022-10-13T23:20:34.091Z,8.67
2022-10-13T23:23:01.967Z,9.30
2022-10-13T23:25:30.928Z,8.47
2022-10-13T23:27:59.151Z,9.00
2022-10-13T23:30:28.212Z,8.83
2022-10-13T23:32:56.011Z,8.50
2022-10-13T23:35:23.928Z,9.63
2022-10-13T23:37:52.590Z,9.13
2022-10-13T23:40:20.248Z,9.20
2022-10-13T23:42:49.204Z,9.47
2022-10-13T23:45:16.870Z,9.83
2022-10-13T23:47:44.369Z,10.10
2022-10-13T23:50:12.142Z,10.30
2022-10-13T23:52:39.765Z,9.60
2022-10-13T23:55:07.943Z,9.90
2022-10-13T23:57:35.650Z,10.27
